createdAt,value
2022-12-15T00:01:49.588Z,-6.08
2022-12-15T00:04:34.585Z,-6.14
2022-12-15T00:07:19.806Z,-6.15
2022-12-15T00:10:04.690Z,-6.08
2022-12-15T00:12:50.104Z,-6.05
2022-12-15T00:15:35.489Z,-6.05
2022-12-15T00:18:24.939Z,-6.09
2022-12-15T00:21:10.304Z,-6.19
2022-12-15T00:23:55.009Z,-6.17
2022-12-15T00:26:39.849Z,-6.30
2022-12-15T00:29:25.347Z,-6.34
2022-12-15T00:32:10.155Z,-6.42
2022-12-15T00:34:55.049Z,-6.34
2022-12-15T00:37:39.886Z,-6.35
2022-12-15T00:40:06.968Z,-6.31
2022-12-15T00:42:33.495Z,-6.36
2022-12-15T00:44:59.952Z,-6.39
2022-12-15T00:47:26.499Z,-6.30
2022-12-15T00:50:11.294Z,-6.35
2022-12-15T00:52:56.712Z,-6.35
2022-12-15T00:55:41.581Z,-6.40
2022-12-15T00:58:26.576Z,-6.39
2022-12-15T01:01:11.463Z,-6.49
2022-12-15T01:03:56.552Z,-6.46
2022-12-15T01:06:42.200Z,-6.57
2022-12-15T01:09:29.169Z,-6.54
2022-12-15T01:12:14.119Z,-6.58
2022-12-15T01:14:59.424Z,-6.59
2022-12-15T01:17:44.930Z,-6.64
2022-12-15T01:20:32.752Z,-6.61
2022-12-15T01:22:59.527Z,-6.61
2022-12-15T01:25:27.537Z,-6.58
2022-12-15T01:27:54.282Z,-6.56
2022-12-15T01:30:24.402Z,-6.68
2022-12-15T01:32:51.972Z,-6.57
2022-12-15T01:35:19.055Z,-6.60
2022-12-15T01:37:46.255Z,-6.57
2022-12-15T01:40:45.708Z,-6.56
2022-12-15T01:43:27.538Z,-6.57
2022-12-15T01:45:56.531Z,-6.56
2022-12-15T01:48:28.246Z,-6.62
2022-12-15T01:51:01.406Z,-6.63
2022-12-15T01:53:30.641Z,-6.69
2022-12-15T01:55:57.647Z,-6.82
2022-12-15T01:58:24.170Z,-6.60
2022-12-15T02:00:50.643Z,-6.58
2022-12-15T02:03:18.659Z,-6.60
2022-12-15T02:05:46.964Z,-6.60
2022-12-15T02:08:13.770Z,-6.62
2022-12-15T02:11:15.330Z,-6.63
2022-12-15T02:13:57.126Z,-6.62
2022-12-15T02:16:36.343Z,-6.63
2022-12-15T02:19:05.597Z,-6.59
2022-12-15T02:22:02.570Z,-6.57
2022-12-15T02:25:10.358Z,-6.58
2022-12-15T02:27:59.210Z,-6.58
2022-12-15T02:30:35.422Z,-6.60
2022-12-15T02:33:23.966Z,-6.64
2022-12-15T02:36:01.827Z,-6.60
2022-12-15T02:38:37.659Z,-6.61
2022-12-15T02:41:06.326Z,-6.61
2022-12-15T02:43:37.029Z,-6.61
2022-12-15T02:46:14.630Z,-6.58
2022-12-15T02:49:28.164Z,-6.59
2022-12-15T02:52:32.231Z,-6.57
2022-12-15T02:55:13.328Z,-6.59
2022-12-15T02:57:59.427Z,-6.60
2022-12-15T03:00:28.270Z,-6.58
2022-12-15T03:02:55.895Z,-6.57
2022-12-15T03:05:24.887Z,-6.57
2022-12-15T03:07:54.159Z,-6.66
2022-12-15T03:10:23.568Z,-6.54
2022-12-15T03:12:52.804Z,-6.59
2022-12-15T03:15:19.421Z,-6.57
2022-12-15T03:17:46.071Z,-6.53
2022-12-15T03:20:12.652Z,-6.53
2022-12-15T03:22:39.457Z,-6.44
2022-12-15T03:25:06.177Z,-6.52
2022-12-15T03:27:32.708Z,-6.47
2022-12-15T03:29:59.125Z,-6.48
2022-12-15T03:32:25.627Z,-6.53
2022-12-15T03:34:52.074Z,-6.60
2022-12-15T03:37:18.506Z,-6.69
2022-12-15T03:39:44.949Z,-6.62
2022-12-15T03:42:11.387Z,-6.68
2022-12-15T03:44:37.890Z,-6.70
2022-12-15T03:47:04.436Z,-6.77
2022-12-15T03:49:30.843Z,-6.84
2022-12-15T03:51:57.340Z,-6.79
2022-12-15T03:54:23.776Z,-6.75
2022-12-15T03:56:50.270Z,-6.77
2022-12-15T03:59:16.799Z,-6.86
2022-12-15T04:01:49.203Z,-6.87
2022-12-15T04:04:15.973Z,-6.92
2022-12-15T04:06:42.411Z,-7.04
2022-12-15T04:09:09.009Z,-7.06
2022-12-15T04:11:35.819Z,-7.11
2022-12-15T04:14:02.326Z,-7.15
2022-12-15T04:16:29.537Z,-7.27
2022-12-15T04:19:14.708Z,-7.26
2022-12-15T04:21:41.163Z,-7.28
2022-12-15T04:24:26.339Z,-7.25
2022-12-15T04:27:11.355Z,-7.26
2022-12-15T04:29:56.215Z,-7.28
2022-12-15T04:32:42.233Z,-7.27
2022-12-15T04:35:28.056Z,-7.28
2022-12-15T04:38:13.792Z,-7.29
2022-12-15T04:40:59.258Z,-7.38
2022-12-15T04:43:44.577Z,-7.39
2022-12-15T04:46:29.689Z,-7.46
2022-12-15T04:49:14.934Z,-7.45
2022-12-15T04:52:00.091Z,-7.47
2022-12-15T04:54:45.049Z,-7.55
2022-12-15T04:57:29.838Z,-7.84
2022-12-15T05:00:14.732Z,-7.70
2022-12-15T05:02:59.494Z,-7.63
2022-12-15T05:05:44.377Z,-7.67
2022-12-15T05:08:29.237Z,-7.67
2022-12-15T05:11:14.112Z,-7.67
2022-12-15T05:13:58.938Z,-7.65
2022-12-15T05:16:43.809Z,-7.61
2022-12-15T05:19:28.973Z,-7.67
2022-12-15T05:22:14.379Z,-7.59
2022-12-15T05:24:59.207Z,-7.59
2022-12-15T05:27:44.077Z,-7.85
2022-12-15T05:30:29.363Z,-7.65
2022-12-15T05:32:55.831Z,-7.66
2022-12-15T05:35:22.278Z,-7.67
2022-12-15T05:37:48.777Z,-7.76
2022-12-15T05:40:15.323Z,-7.70
2022-12-15T05:42:41.740Z,-7.75
2022-12-15T05:45:10.098Z,-7.78
2022-12-15T05:47:36.606Z,-7.85
2022-12-15T05:50:03.786Z,-7.85
2022-12-15T05:52:30.338Z,-7.94
2022-12-15T05:54:56.781Z,-7.96
2022-12-15T05:57:23.269Z,-7.97
2022-12-15T05:59:49.714Z,-7.96
2022-12-15T06:02:16.224Z,-7.91
2022-12-15T06:04:42.811Z,-7.95
2022-12-15T06:07:09.325Z,-7.96
2022-12-15T06:09:35.761Z,-8.00
2022-12-15T06:12:02.250Z,-8.01
2022-12-15T06:14:28.707Z,-8.12
2022-12-15T06:16:55.868Z,-8.10
2022-12-15T06:19:22.508Z,-8.16
2022-12-15T06:21:49.042Z,-8.14
2022-12-15T06:24:15.600Z,-8.14
2022-12-15T06:26:42.118Z,-8.19
2022-12-15T06:29:11.306Z,-8.14
2022-12-15T06:31:39.019Z,-8.15
2022-12-15T06:34:08.295Z,-8.15
2022-12-15T06:36:35.262Z,-8.15
2022-12-15T06:39:04.273Z,-8.11
2022-12-15T06:41:31.444Z,-8.12
2022-12-15T06:43:58.947Z,-8.12
2022-12-15T06:46:27.963Z,-8.12
2022-12-15T06:48:54.573Z,-8.13
2022-12-15T06:51:22.312Z,-8.24
2022-12-15T06:53:49.178Z,-8.27
2022-12-15T06:56:33.073Z,-8.20
2022-12-15T06:59:01.784Z,-8.20
2022-12-15T07:01:28.927Z,-8.14
2022-12-15T07:03:55.812Z,-8.10
2022-12-15T07:06:23.070Z,-8.07
2022-12-15T07:08:52.481Z,-7.99
2022-12-15T07:11:21.049Z,-7.98
2022-12-15T07:13:53.048Z,-7.96
2022-12-15T07:16:21.467Z,-8.01
2022-12-15T07:18:48.354Z,-8.00
2022-12-15T07:21:15.068Z,-8.18
2022-12-15T07:23:57.828Z,-8.06
2022-12-15T07:26:25.125Z,-8.19
2022-12-15T07:28:53.401Z,-8.14
2022-12-15T07:31:20.695Z,-8.23
2022-12-15T07:33:48.337Z,-8.14
2022-12-15T07:36:15.423Z,-8.12
2022-12-15T07:38:41.914Z,-8.12
2022-12-15T07:41:09.860Z,-8.10
2022-12-15T07:43:37.455Z,-8.12
2022-12-15T07:46:05.216Z,-8.14
2022-12-15T07:48:32.898Z,-8.14
2022-12-15T07:51:08.424Z,-8.22
2022-12-15T07:53:37.829Z,-8.23
2022-12-15T07:56:08.462Z,-8.09
2022-12-15T07:58:36.285Z,-8.07
2022-12-15T08:01:05.288Z,-7.99
2022-12-15T08:03:32.576Z,-7.99
2022-12-15T08:06:04.421Z,-7.99
2022-12-15T08:08:32.212Z,-7.97
2022-12-15T08:10:58.924Z,-7.96
2022-12-15T08:14:00.888Z,-7.91
2022-12-15T08:16:12.782Z,-7.90
2022-12-15T08:18:39.664Z,-7.86
2022-12-15T08:21:08.330Z,-7.84
2022-12-15T08:23:35.972Z,-7.80
2022-12-15T08:26:07.968Z,-7.77
2022-12-15T08:28:35.559Z,-7.73
2022-12-15T08:31:07.731Z,-7.67
2022-12-15T08:33:34.828Z,-7.60
2022-12-15T08:36:03.956Z,-7.50
2022-12-15T08:38:31.677Z,-7.36
2022-12-15T08:40:58.774Z,-7.27
2022-12-15T08:43:25.222Z,-7.05
2022-12-15T08:45:51.824Z,-6.95
2022-12-15T08:48:18.540Z,-6.79
2022-12-15T08:50:45.774Z,-6.74
2022-12-15T08:56:06.913Z,-6.71
2022-12-15T08:58:34.192Z,-6.39
2022-12-15T09:01:17.460Z,-6.32
2022-12-15T09:03:50.338Z,-6.22
2022-12-15T09:06:20.764Z,-6.15
2022-12-15T09:08:50.134Z,-6.17
2022-12-15T09:11:17.754Z,-6.00
2022-12-15T09:13:44.501Z,-5.93
2022-12-15T09:16:14.769Z,-5.94
2022-12-15T09:18:46.648Z,-5.82
2022-12-15T09:21:15.365Z,-5.80
2022-12-15T09:23:42.563Z,-5.74
2022-12-15T09:26:14.354Z,-5.61
2022-12-15T09:28:42.818Z,-5.56
2022-12-15T09:31:21.922Z,-5.50
2022-12-15T09:33:51.082Z,-5.53
2022-12-15T09:36:17.551Z,-5.47
2022-12-15T09:38:44.776Z,-5.38
2022-12-15T09:41:14.959Z,-5.31
2022-12-15T09:43:58.563Z,-5.42
2022-12-15T09:46:37.474Z,-5.36
2022-12-15T09:49:29.189Z,-5.43
2022-12-15T09:52:17.963Z,-5.48
2022-12-15T09:54:46.175Z,-5.47
2022-12-15T09:57:35.665Z,-5.47
2022-12-15T10:00:14.500Z,-5.50
2022-12-15T10:03:08.423Z,-5.43
2022-12-15T10:06:18.102Z,-5.31
2022-12-15T10:08:55.926Z,-5.30
2022-12-15T10:11:43.864Z,-5.34
2022-12-15T10:14:35.162Z,-5.38
2022-12-15T10:17:13.960Z,-5.32
2022-12-15T10:19:49.976Z,-5.23
2022-12-15T10:22:23.811Z,-5.20
2022-12-15T10:28:18.311Z,-5.08
2022-12-15T10:31:07.983Z,-4.99
2022-12-15T10:36:32.079Z,-4.89
2022-12-15T10:38:58.584Z,-4.94
2022-12-15T10:41:28.408Z,-4.83
2022-12-15T10:43:55.034Z,-4.76
2022-12-15T10:46:27.079Z,-4.81
2022-12-15T10:48:59.923Z,-4.78
2022-12-15T10:51:51.027Z,-4.84
2022-12-15T10:54:18.822Z,-4.66
2022-12-15T10:57:16.663Z,-4.60
2022-12-15T10:59:43.442Z,-4.60
2022-12-15T11:02:37.066Z,-4.61
2022-12-15T11:05:15.609Z,-4.65
2022-12-15T11:07:44.240Z,-4.64
2022-12-15T11:10:20.004Z,-4.71
2022-12-15T11:13:16.123Z,-4.58
2022-12-15T11:18:53.431Z,-4.61
2022-12-15T11:21:26.482Z,-4.53
2022-12-15T11:24:01.705Z,-4.49
2022-12-15T11:26:50.121Z,-4.37
2022-12-15T11:29:23.339Z,-4.38
2022-12-15T11:31:51.716Z,-4.25
2022-12-15T11:34:21.587Z,-4.17
2022-12-15T11:37:00.054Z,-4.11
2022-12-15T11:39:56.873Z,-4.11
2022-12-15T11:42:42.286Z,-4.20
2022-12-15T11:45:23.726Z,-4.03
2022-12-15T11:47:58.535Z,-3.64
2022-12-15T11:50:42.650Z,-3.37
2022-12-15T11:53:30.893Z,-3.28
2022-12-15T11:56:09.955Z,-3.23
2022-12-15T11:59:04.790Z,-3.02
2022-12-15T12:02:03.192Z,-2.97
2022-12-15T12:04:52.056Z,-2.76
2022-12-15T12:07:41.688Z,-2.67
2022-12-15T12:11:03.075Z,-2.59
2022-12-15T12:13:42.444Z,-2.62
2022-12-15T12:16:31.986Z,-2.58
2022-12-15T12:19:10.183Z,-2.74
2022-12-15T12:21:51.124Z,-2.43
2022-12-15T12:24:29.968Z,-2.15
2022-12-15T12:26:59.087Z,-2.01
2022-12-15T12:29:37.943Z,-2.04
2022-12-15T12:32:17.045Z,-2.19
2022-12-15T12:35:32.363Z,-2.32
2022-12-15T12:37:56.873Z,-2.28
2022-12-15T12:40:47.819Z,-2.14
2022-12-15T12:43:41.389Z,-2.14
2022-12-15T12:46:22.691Z,-2.08
2022-12-15T12:48:56.200Z,-2.06
2022-12-15T12:51:37.883Z,-1.97
2022-12-15T12:54:36.626Z,-2.16
2022-12-15T12:57:12.313Z,-1.98
2022-12-15T13:00:14.286Z,-1.91
2022-12-15T13:02:47.757Z,-2.24
2022-12-15T13:05:28.494Z,-2.10
2022-12-15T13:07:56.938Z,-2.08
2022-12-15T13:10:25.227Z,-2.26
2022-12-15T13:12:59.707Z,-2.30
2022-12-15T13:15:39.618Z,-2.53
2022-12-15T13:18:16.775Z,-2.62
2022-12-15T13:20:45.158Z,-2.69
2022-12-15T13:23:21.753Z,-2.54
2022-12-15T13:25:56.964Z,-2.51
2022-12-15T13:28:40.510Z,-2.50
2022-12-15T13:31:16.559Z,-2.52
2022-12-15T13:34:12.340Z,-2.52
2022-12-15T13:36:41.779Z,-2.51
2022-12-15T13:39:11.393Z,-2.52
2022-12-15T13:42:15.327Z,-2.60
2022-12-15T13:44:41.281Z,-2.70
2022-12-15T13:47:12.461Z,-2.58
2022-12-15T13:49:49.413Z,-2.54
2022-12-15T13:53:08.727Z,-2.62
2022-12-15T13:55:28.289Z,-2.57
2022-12-15T13:58:00.294Z,-2.60
2022-12-15T14:00:26.822Z,-2.63
2022-12-15T14:03:07.562Z,-2.53
2022-12-15T14:05:34.393Z,-2.47
2022-12-15T14:08:03.447Z,-2.42
2022-12-15T14:10:41.774Z,-2.28
2022-12-15T14:13:20.319Z,-2.20
2022-12-15T14:15:55.864Z,-2.28
2022-12-15T14:21:20.128Z,-2.36
2022-12-15T14:24:11.476Z,-2.57
2022-12-15T14:26:33.316Z,-2.70
2022-12-15T14:29:03.337Z,-2.43
2022-12-15T14:31:30.903Z,-2.57
2022-12-15T14:34:06.288Z,-2.74
2022-12-15T14:36:33.192Z,-2.85
2022-12-15T14:39:01.441Z,-2.90
2022-12-15T14:41:31.736Z,-2.93
2022-12-15T14:44:31.797Z,-3.29
2022-12-15T14:47:05.825Z,-3.08
2022-12-15T14:49:43.565Z,-3.06
2022-12-15T14:52:23.191Z,-3.56
2022-12-15T14:54:53.311Z,-3.33
2022-12-15T14:57:37.987Z,-3.39
2022-12-15T15:00:26.116Z,-3.53
2022-12-15T15:03:04.701Z,-4.56
2022-12-15T15:03:12.192Z,-4.97
2022-12-15T15:03:17.231Z,-3.46
2022-12-15T15:05:47.522Z,-3.44
2022-12-15T15:08:19.317Z,-3.42
2022-12-15T15:10:45.926Z,-3.90
2022-12-15T15:13:19.119Z,-3.43
2022-12-15T15:15:53.362Z,-3.49
2022-12-15T15:18:26.363Z,-3.51
2022-12-15T15:21:00.302Z,-3.54
2022-12-15T15:23:26.811Z,-3.58
2022-12-15T15:26:05.847Z,-3.66
2022-12-15T15:28:41.309Z,-3.69
2022-12-15T15:31:40.814Z,-3.72
2022-12-15T15:34:08.542Z,-3.72
2022-12-15T15:36:37.856Z,-3.76
2022-12-15T15:39:12.070Z,-3.80
2022-12-15T15:41:38.642Z,-4.30
2022-12-15T15:44:12.666Z,-3.76
2022-12-15T15:46:52.435Z,-3.80
2022-12-15T15:49:21.677Z,-3.78
2022-12-15T15:51:48.989Z,-3.79
2022-12-15T15:54:19.078Z,-3.82
2022-12-15T15:56:45.576Z,-3.89
2022-12-15T15:59:16.812Z,-3.96
2022-12-15T16:01:44.090Z,-4.04
2022-12-15T16:04:10.766Z,-4.25
2022-12-15T16:06:40.836Z,-4.14
2022-12-15T16:09:14.709Z,-4.16
2022-12-15T16:11:41.206Z,-4.17
2022-12-15T16:14:15.418Z,-4.44
2022-12-15T16:16:42.052Z,-4.14
2022-12-15T16:19:09.161Z,-4.15
2022-12-15T16:21:36.172Z,-4.33
2022-12-15T16:24:09.983Z,-4.18
2022-12-15T16:26:38.886Z,-4.23
2022-12-15T16:29:15.326Z,-4.28
2022-12-15T16:31:45.431Z,-4.34
2022-12-15T16:34:19.421Z,-4.39
2022-12-15T16:36:46.184Z,-4.46
2022-12-15T16:39:20.732Z,-4.57
2022-12-15T16:41:47.173Z,-4.60
2022-12-15T16:44:14.215Z,-4.71
2022-12-15T16:46:40.766Z,-4.64
2022-12-15T16:49:07.280Z,-4.94
2022-12-15T16:51:38.832Z,-4.73
2022-12-15T16:54:06.023Z,-4.79
2022-12-15T16:56:33.033Z,-4.84
2022-12-15T16:59:30.851Z,-4.96
2022-12-15T17:01:46.130Z,-4.98
2022-12-15T17:04:12.761Z,-5.04
2022-12-15T17:06:39.426Z,-5.12
2022-12-15T17:09:08.836Z,-5.16
2022-12-15T17:11:35.567Z,-5.28
2022-12-15T17:14:02.046Z,-5.29
2022-12-15T17:16:29.675Z,-5.45
2022-12-15T17:18:56.244Z,-5.37
2022-12-15T17:21:29.706Z,-5.33
2022-12-15T17:23:59.714Z,-5.30
2022-12-15T17:26:32.045Z,-5.30
2022-12-15T17:29:01.563Z,-5.31
2022-12-15T17:31:34.776Z,-5.35
2022-12-15T17:34:22.291Z,-5.34
2022-12-15T17:36:49.136Z,-5.35
2022-12-15T17:39:19.191Z,-5.39
2022-12-15T17:42:02.317Z,-5.44
2022-12-15T17:44:34.376Z,-5.71
2022-12-15T17:47:03.852Z,-5.48
2022-12-15T17:49:35.628Z,-5.50
2022-12-15T17:52:07.352Z,-5.53
2022-12-15T17:54:34.043Z,-5.58
2022-12-15T17:57:00.497Z,-5.82
2022-12-15T17:59:27.142Z,-5.66
2022-12-15T18:01:57.080Z,-5.66
2022-12-15T18:04:23.950Z,-5.72
2022-12-15T18:06:52.009Z,-5.75
2022-12-15T18:09:22.345Z,-5.82
2022-12-15T18:11:49.616Z,-5.86
2022-12-15T18:14:18.466Z,-5.87
2022-12-15T18:16:46.180Z,-6.18
2022-12-15T18:19:13.314Z,-5.97
2022-12-15T18:21:45.713Z,-6.01
2022-12-15T18:24:13.784Z,-6.06
2022-12-15T18:26:40.443Z,-6.08
2022-12-15T18:29:13.220Z,-6.03
2022-12-15T18:31:40.816Z,-6.01
2022-12-15T18:34:12.821Z,-6.00
2022-12-15T18:36:40.016Z,-6.03
2022-12-15T18:39:18.640Z,-6.08
2022-12-15T18:41:45.658Z,-6.12
2022-12-15T18:44:23.491Z,-6.17
2022-12-15T18:46:50.080Z,-6.29
2022-12-15T18:49:17.836Z,-6.38
2022-12-15T18:51:45.411Z,-6.38
2022-12-15T18:54:18.118Z,-6.43
2022-12-15T18:56:44.988Z,-6.47
2022-12-15T18:59:16.695Z,-6.43
2022-12-15T19:01:45.922Z,-6.43
2022-12-15T19:04:13.453Z,-6.52
2022-12-15T19:06:40.885Z,-6.54
2022-12-15T19:09:27.699Z,-6.53
2022-12-15T19:12:17.100Z,-6.55
2022-12-15T19:14:45.364Z,-6.58
2022-12-15T19:17:33.764Z,-6.55
2022-12-15T19:20:20.218Z,-6.60
2022-12-15T19:22:48.495Z,-6.72
2022-12-15T19:25:26.098Z,-6.74
2022-12-15T19:27:58.572Z,-6.78
2022-12-15T19:30:27.693Z,-6.75
2022-12-15T19:32:54.293Z,-6.73
2022-12-15T19:35:21.485Z,-6.73
2022-12-15T19:37:49.893Z,-6.77
2022-12-15T19:40:22.792Z,-6.81
2022-12-15T19:42:50.231Z,-6.80
2022-12-15T19:45:19.210Z,-6.80
2022-12-15T19:47:45.688Z,-6.79
2022-12-15T19:50:21.011Z,-6.82
2022-12-15T19:52:50.839Z,-6.78
2022-12-15T19:55:20.827Z,-6.81
2022-12-15T19:57:47.276Z,-6.78
2022-12-15T20:00:15.599Z,-6.83
2022-12-15T20:02:42.411Z,-6.83
2022-12-15T20:05:09.078Z,-6.87
2022-12-15T20:07:35.668Z,-7.00
2022-12-15T20:10:05.287Z,-6.99
2022-12-15T20:12:31.806Z,-6.97
2022-12-15T20:14:58.249Z,-6.97
2022-12-15T20:17:24.825Z,-6.97
2022-12-15T20:19:51.286Z,-7.00
2022-12-15T20:22:19.395Z,-7.02
2022-12-15T20:24:46.976Z,-7.06
2022-12-15T20:27:15.677Z,-7.11
2022-12-15T20:29:42.689Z,-7.18
2022-12-15T20:32:18.548Z,-7.24
2022-12-15T20:34:45.542Z,-7.26
2022-12-15T20:37:25.548Z,-7.26
2022-12-15T20:39:57.131Z,-7.27
2022-12-15T20:42:24.663Z,-7.28
2022-12-15T20:44:51.513Z,-7.30
2022-12-15T20:47:26.050Z,-7.31
2022-12-15T20:49:54.283Z,-7.31
2022-12-15T20:52:23.717Z,-7.32
2022-12-15T20:54:51.076Z,-7.35
2022-12-15T20:57:17.805Z,-7.39
2022-12-15T20:59:44.758Z,-7.38
2022-12-15T21:02:19.424Z,-7.43
2022-12-15T21:04:46.461Z,-7.51
2022-12-15T21:07:13.282Z,-7.50
2022-12-15T21:09:40.050Z,-7.53
2022-12-15T21:12:27.530Z,-7.56
2022-12-15T21:14:54.852Z,-7.58
2022-12-15T21:17:25.731Z,-7.58
2022-12-15T21:19:52.837Z,-7.59
2022-12-15T21:22:26.436Z,-7.59
2022-12-15T21:24:56.804Z,-7.58
2022-12-15T21:27:23.179Z,-7.59
2022-12-15T21:29:52.620Z,-7.64
2022-12-15T21:32:20.107Z,-7.65
2022-12-15T21:34:46.726Z,-7.63
2022-12-15T21:37:19.124Z,-7.52
2022-12-15T21:39:45.639Z,-7.46
2022-12-15T21:42:15.970Z,-7.51
2022-12-15T21:44:42.867Z,-7.46
2022-12-15T21:47:51.876Z,-7.44
2022-12-15T21:50:19.281Z,-7.46
2022-12-15T21:52:47.428Z,-7.49
2022-12-15T21:55:14.689Z,-7.52
2022-12-15T21:57:41.197Z,-7.55
2022-12-15T22:00:13.458Z,-7.58
2022-12-15T22:02:40.650Z,-7.60
2022-12-15T22:05:24.663Z,-7.62
2022-12-15T22:07:51.579Z,-7.67
2022-12-15T22:10:18.480Z,-7.72
2022-12-15T22:12:55.898Z,-7.78
2022-12-15T22:15:26.170Z,-7.83
2022-12-15T22:17:52.729Z,-7.94
2022-12-15T22:20:23.153Z,-7.88
2022-12-15T22:22:50.677Z,-7.88
2022-12-15T22:25:20.465Z,-7.91
2022-12-15T22:27:47.332Z,-7.89
2022-12-15T22:30:16.318Z,-7.90
2022-12-15T22:32:42.820Z,-7.93
2022-12-15T22:35:27.438Z,-8.00
2022-12-15T22:37:54.055Z,-8.01
2022-12-15T22:40:23.300Z,-8.03
2022-12-15T22:42:55.118Z,-8.03
2022-12-15T22:45:23.942Z,-8.01
2022-12-15T22:47:52.359Z,-7.99
2022-12-15T22:50:23.400Z,-8.00
2022-12-15T22:52:50.305Z,-8.01
2022-12-15T22:55:20.385Z,-8.00
2022-12-15T22:57:53.207Z,-8.00
2022-12-15T23:00:19.645Z,-8.01
2022-12-15T23:02:47.233Z,-8.05
2022-12-15T23:05:15.955Z,-8.06
2022-12-15T23:07:43.812Z,-8.08
2022-12-15T23:10:34.681Z,-8.13
2022-12-15T23:13:01.114Z,-8.14
2022-12-15T23:15:47.259Z,-8.13
2022-12-15T23:18:14.172Z,-8.16
2022-12-15T23:20:40.742Z,-8.19
2022-12-15T23:23:08.677Z,-8.19
2022-12-15T23:25:35.275Z,-8.23
2022-12-15T23:28:01.753Z,-8.23
2022-12-15T23:30:28.168Z,-8.23
2022-12-15T23:32:55.226Z,-8.25
2022-12-15T23:35:22.088Z,-8.27
2022-12-15T23:37:48.534Z,-8.28
2022-12-15T23:40:21.144Z,-8.27
2022-12-15T23:42:51.593Z,-8.28
2022-12-15T23:45:18.830Z,-8.25
2022-12-15T23:47:45.411Z,-8.25
2022-12-15T23:50:11.918Z,-8.26
2022-12-15T23:52:38.754Z,-8.26
2022-12-15T23:55:07.948Z,-8.26
2022-12-15T23:57:34.871Z,-8.26
